Time;durP1;ratioP1;P1;durP2;ratioP2;P2;SDS_P1;SDS_P2;PMS_P1;PMS_P2;Temp;Humidity;BMP_temperature;BMP_pressure;BME280_temperature;BME280_humidity;BME280_pressure;Samples;Min_cycle;Max_cycle;Signal;HPM_P1;HPM_P2
2023/10/25 00:03:40;;;;;;;106.90;6.00;;;;;;;8.36;68.43;98792.38;10467993;28;20599;-58
2023/10/25 00:08:42;;;;;;;130.70;6.30;;;;;;;8.38;68.30;98796.56;10469637;28;20056;-58
2023/10/25 00:13:44;;;;;;;43.22;3.45;;;;;;;8.38;68.55;98787.91;10467809;28;20144;-58
2023/10/25 00:18:46;;;;;;;167.70;7.93;;;;;;;8.42;68.49;98773.72;10467110;28;20412;-58
2023/10/25 00:23:48;;;;;;;46.83;4.07;;;;;;;8.37;68.45;98779.25;10468884;28;20052;-58
2023/10/25 00:28:50;;;;;;;65.63;3.67;;;;;;;8.32;68.45;98773.53;10465219;28;20464;-58
2023/10/25 00:33:53;;;;;;;60.95;3.88;;;;;;;8.23;68.59;98787.19;10458629;28;20102;-59
2023/10/25 00:38:55;;;;;;;37.30;2.83;;;;;;;8.34;68.29;98783.84;10468242;28;20036;-58
2023/10/25 00:43:58;;;;;;;101.13;5.50;;;;;;;8.26;68.14;98791.34;10464776;28;20404;-58
2023/10/25 00:49:00;;;;;;;96.07;5.07;;;;;;;8.08;68.01;98787.38;10466704;28;20280;-58
2023/10/25 00:54:03;;;;;;;58.05;3.95;;;;;;;7.88;68.04;98797.34;10467314;28;20555;-58
2023/10/25 00:59:06;;;;;;;22.77;2.20;;;;;;;7.77;68.50;98799.81;10467236;28;20036;-58
2023/10/25 01:04:09;;;;;;;23.25;2.85;;;;;;;7.79;68.46;98800.53;10462348;28;20044;-58
2023/10/25 01:09:11;;;;;;;39.38;3.33;;;;;;;7.94;68.62;98793.47;10465381;28;20057;-58
2023/10/25 01:14:13;;;;;;;56.72;4.95;;;;;;;7.99;68.48;98791.41;10447856;28;20056;-58
2023/10/25 01:19:15;;;;;;;44.92;3.03;;;;;;;8.07;68.65;98788.28;10467118;28;20044;-58
2023/10/25 01:24:17;;;;;;;121.47;9.50;;;;;;;8.02;68.15;98786.81;10463810;28;20402;-58
2023/10/25 01:29:19;;;;;;;28.98;3.53;;;;;;;7.98;68.53;98780.16;10466577;28;20051;-58
2023/10/25 01:34:21;;;;;;;103.57;6.88;;;;;;;8.01;68.43;98779.13;10458519;28;20154;-58
2023/10/25 01:39:23;;;;;;;57.33;3.10;;;;;;;8.14;68.27;98768.75;10465996;28;20492;-59
2023/10/25 01:44:25;;;;;;;20.88;3.15;;;;;;;8.15;67.95;98763.44;10465289;28;20093;-58
2023/10/25 01:49:27;;;;;;;41.92;3.03;;;;;;;8.03;67.69;98762.47;10478728;28;20202;-58
2023/10/25 01:54:30;;;;;;;81.53;5.60;;;;;;;8.13;67.98;98762.69;10464845;28;20036;-58
2023/10/25 01:59:32;;;;;;;83.65;4.50;;;;;;;7.98;67.93;98756.72;10458878;28;20041;-58
2023/10/25 02:04:34;;;;;;;99.72;5.10;;;;;;;7.97;68.12;98742.06;10466373;28;20036;-58
2023/10/25 02:09:36;;;;;;;34.55;3.60;;;;;;;8.14;68.37;98727.09;10470873;28;20052;-58
2023/10/25 02:14:40;;;;;;;82.60;4.28;;;;;;;8.36;68.22;98722.06;10463631;28;20055;-59
2023/10/25 02:19:45;;;;;;;62.63;4.95;;;;;;;8.25;67.52;98720.19;10467871;28;20582;-58
2023/10/25 02:24:47;;;;;;;98.43;5.15;;;;;;;8.04;68.14;98725.06;10466862;28;20424;-58
2023/10/25 02:29:49;;;;;;;24.90;2.75;;;;;;;7.94;68.21;98726.63;10469905;28;20048;-58
2023/10/25 02:34:51;;;;;;;61.47;4.60;;;;;;;8.04;68.11;98716.41;10446005;28;20515;-59
2023/10/25 02:39:54;;;;;;;35.65;4.00;;;;;;;8.03;68.09;98710.41;10470236;28;20162;-58
2023/10/25 02:44:56;;;;;;;94.70;6.07;;;;;;;8.07;68.11;98712.78;10464263;28;20051;-58
2023/10/25 02:49:58;;;;;;;46.75;3.67;;;;;;;8.03;68.27;98701.75;10462067;28;20043;-58
2023/10/25 02:55:00;;;;;;;50.22;3.42;;;;;;;8.05;68.41;98694.66;10456376;28;20520;-58
2023/10/25 03:00:02;;;;;;;28.00;3.17;;;;;;;8.12;68.41;98689.91;10469610;28;20122;-59
2023/10/25 03:05:05;;;;;;;28.15;2.65;;;;;;;8.18;68.46;98681.66;10440880;28;20056;-58
2023/10/25 03:10:07;;;;;;;22.95;3.25;;;;;;;8.12;68.43;98672.47;10462506;28;20479;-58
2023/10/25 03:15:09;;;;;;;22.15;2.97;;;;;;;8.11;68.31;98670.00;10461794;28;20051;-59
2023/10/25 03:20:11;;;;;;;99.38;6.65;;;;;;;8.09;68.34;98664.88;10462387;28;20045;-59
2023/10/25 03:25:13;;;;;;;141.88;4.95;;;;;;;8.01;68.47;98660.19;10442013;28;20059;-58
2023/10/25 03:30:16;;;;;;;28.45;3.67;;;;;;;8.11;68.58;98654.38;10444456;28;20060;-58
2023/10/25 03:35:18;;;;;;;77.30;5.82;;;;;;;8.15;68.21;98658.41;10461147;28;20489;-59
2023/10/25 03:40:20;;;;;;;102.20;7.22;;;;;;;7.94;67.82;98653.75;10462444;28;20496;-59
2023/10/25 03:45:22;;;;;;;15.85;2.55;;;;;;;7.91;68.39;98648.75;10439283;28;20044;-59
2023/10/25 03:50:25;;;;;;;213.23;9.70;;;;;;;7.92;68.00;98645.19;10445196;28;20045;-58
2023/10/25 03:55:27;;;;;;;199.50;9.32;;;;;;;7.74;68.06;98646.47;10455024;28;20610;-58
2023/10/25 04:00:28;;;;;;;71.15;5.57;;;;;;;7.58;68.63;98638.06;10462945;28;20248;-58
2023/10/25 04:05:30;;;;;;;76.30;4.10;;;;;;;7.77;68.62;98638.44;10458120;28;20040;-59
2023/10/25 04:10:32;;;;;;;49.17;3.70;;;;;;;7.93;68.32;98644.28;10459428;28;20051;-59
2023/10/25 04:15:35;;;;;;;95.90;6.55;;;;;;;7.99;68.26;98637.81;10461239;28;20075;-58
2023/10/25 04:20:37;;;;;;;56.90;4.15;;;;;;;8.07;68.23;98632.06;10454524;28;20444;-59
2023/10/25 04:25:39;;;;;;;152.95;8.05;;;;;;;8.13;68.09;98629.06;10444982;28;20048;-58
2023/10/25 04:30:41;;;;;;;84.18;4.47;;;;;;;8.08;68.37;98625.94;10449372;28;20659;-59
2023/10/25 04:35:44;;;;;;;40.60;3.58;;;;;;;8.04;68.11;98618.31;10448212;28;20037;-59
2023/10/25 04:40:46;;;;;;;98.18;5.57;;;;;;;8.10;68.37;98601.44;10447721;28;20128;-59
2023/10/25 04:45:48;;;;;;;51.13;3.30;;;;;;;8.15;68.15;98598.53;10448997;28;20268;-59
2023/10/25 04:50:50;;;;;;;59.47;5.05;;;;;;;8.19;67.92;98603.41;10458838;28;21795;-59
2023/10/25 04:55:52;;;;;;;60.67;3.13;;;;;;;8.14;68.08;98595.09;10452319;28;20040;-59
2023/10/25 05:00:54;;;;;;;82.10;5.47;;;;;;;7.97;68.10;98588.47;10454008;28;20064;-59
2023/10/25 05:05:57;;;;;;;39.65;3.50;;;;;;;7.88;68.09;98580.44;10451259;28;20565;-59
2023/10/25 05:11:03;;;;;;;5.07;2.00;;;;;;;7.84;68.26;98579.84;10452872;28;20045;-59
2023/10/25 05:16:06;;;;;;;28.77;2.60;;;;;;;7.96;68.22;98578.97;10445337;28;20036;-59
2023/10/25 05:21:12;;;;;;;7.85;1.85;;;;;;;7.85;67.97;98572.88;10463226;28;20041;-58
2023/10/25 05:26:14;;;;;;;66.72;4.25;;;;;;;7.49;68.26;98578.81;10463893;28;20059;-58
2023/10/25 05:31:17;;;;;;;10.63;3.47;;;;;;;7.46;68.50;98579.06;10464929;28;20177;-59
2023/10/25 05:36:20;;;;;;;35.75;2.58;;;;;;;7.37;68.48;98579.66;10464296;28;20052;-58
2023/10/25 05:41:25;;;;;;;4.45;1.90;;;;;;;7.46;68.68;98567.81;10465995;28;20041;-59
2023/10/25 05:46:27;;;;;;;21.13;2.60;;;;;;;7.59;68.36;98566.84;10462293;28;20530;-59
2023/10/25 05:51:29;;;;;;;11.35;1.95;;;;;;;7.65;68.42;98560.41;10466468;28;20523;-59
2023/10/25 05:56:32;;;;;;;3.15;1.67;;;;;;;7.87;68.35;98552.75;10460170;28;20066;-59
2023/10/25 06:01:46;;;;;;;3.50;1.60;;;;;;;8.10;68.18;98549.38;10458228;28;20351;-60
2023/10/25 06:06:48;;;;;;;58.47;2.58;;;;;;;8.00;67.73;98543.97;10461569;28;20040;-60
2023/10/25 06:11:52;;;;;;;98.25;5.68;;;;;;;7.98;67.87;98537.19;10460723;28;20101;-60
2023/10/25 06:16:55;;;;;;;24.45;2.83;;;;;;;8.03;67.87;98535.97;10459301;28;20397;-61
2023/10/25 06:21:58;;;;;;;18.25;3.90;;;;;;;8.00;67.53;98532.72;10441764;28;20676;-60
2023/10/25 06:27:00;;;;;;;25.85;3.33;;;;;;;7.86;67.78;98518.09;10460487;28;20051;-60
2023/10/25 06:32:02;;;;;;;19.25;2.67;;;;;;;7.80;68.10;98520.28;10458929;28;20099;-60
2023/10/25 06:37:06;;;;;;;27.00;2.97;;;;;;;7.78;68.30;98516.97;10460080;28;20051;-60
2023/10/25 06:42:10;;;;;;;4.22;2.30;;;;;;;7.98;68.13;98513.78;10461160;28;20237;-60
2023/10/25 06:47:12;;;;;;;18.80;2.65;;;;;;;7.95;67.90;98511.41;10461293;28;20398;-60
2023/10/25 06:52:14;;;;;;;21.88;3.10;;;;;;;7.86;68.22;98499.88;10460073;28;20526;-60
2023/10/25 06:57:17;;;;;;;6.40;2.10;;;;;;;7.85;67.89;98481.78;10453624;28;20068;-60
2023/10/25 07:02:38;;;;;;;54.13;4.35;;;;;;;7.76;68.42;98485.84;10445853;28;20048;-60
2023/10/25 07:07:40;;;;;;;;;;;;;;;7.77;68.94;98476.28;10444359;28;20045;-60
2023/10/25 07:12:44;;;;;;;59.97;4.15;;;;;;;8.00;68.19;98455.44;10444599;28;19924;-60
2023/10/25 07:18:05;;;;;;;33.65;3.88;;;;;;;8.20;67.71;98448.81;10479343;28;20260;-60
2023/10/25 07:23:08;;;;;;;15.43;2.78;;;;;;;8.43;67.39;98436.69;10455927;28;20381;-60
2023/10/25 07:28:11;;;;;;;7.50;2.65;;;;;;;8.32;67.11;98424.50;10460707;28;20044;-61
2023/10/25 07:33:14;;;;;;;3.40;2.00;;;;;;;8.42;67.50;98419.41;10459963;28;20049;-60
2023/10/25 07:38:16;;;;;;;35.95;3.80;;;;;;;8.45;66.63;98419.19;10456090;28;20432;-61
2023/10/25 07:43:20;;;;;;;9.00;2.80;;;;;;;8.24;66.98;98407.78;10448139;28;20043;-61
2023/10/25 07:48:22;;;;;;;3.55;1.70;;;;;;;8.31;67.25;98403.75;10445101;28;20424;-61
2023/10/25 07:53:24;;;;;;;30.52;3.05;;;;;;;8.13;66.62;98398.16;10448256;28;20037;-61
2023/10/25 07:58:27;;;;;;;2.53;1.60;;;;;;;8.00;67.32;98395.56;10447658;28;20056;-61
2023/10/25 08:03:30;;;;;;;3.50;1.80;;;;;;;8.17;67.22;98393.53;10456373;28;20045;-61
2023/10/25 08:08:32;;;;;;;53.53;2.97;;;;;;;8.21;66.75;98392.34;10456302;28;20040;-61
2023/10/25 08:13:35;;;;;;;4.00;2.10;;;;;;;8.26;67.01;98379.84;10457436;28;20541;-61
2023/10/25 08:18:37;;;;;;;3.85;2.00;;;;;;;8.31;67.08;98370.72;10454329;28;20045;-61
2023/10/25 08:23:39;;;;;;;4.30;2.20;;;;;;;8.77;66.55;98378.50;10463260;28;20507;-61
2023/10/25 08:28:41;;;;;;;4.78;2.33;;;;;;;8.97;66.57;98366.53;10466546;28;20127;-61
2023/10/25 08:33:43;;;;;;;8.40;2.25;;;;;;;8.96;66.39;98350.03;10461392;28;20070;-61
2023/10/25 08:38:45;;;;;;;7.80;2.53;;;;;;;8.90;66.62;98373.16;10468204;28;20111;-61
2023/10/25 08:43:47;;;;;;;7.30;2.60;;;;;;;8.76;66.31;98358.59;10454719;28;20320;-61
2023/10/25 08:48:53;;;;;;;6.25;2.88;;;;;;;8.55;67.11;98326.34;10454360;28;20630;-61
2023/10/25 08:53:59;;;;;;;4.30;1.98;;;;;;;8.35;67.75;98298.38;10450764;28;20045;-61
2023/10/25 08:59:02;;;;;;;5.07;2.70;;;;;;;8.40;67.80;98276.28;10457660;28;20045;-61
2023/10/25 09:04:08;;;;;;;4.45;2.00;;;;;;;8.55;67.93;98289.88;10450808;28;20045;-60
2023/10/25 09:09:11;;;;;;;5.63;2.50;;;;;;;8.91;67.66;98275.75;10462412;28;20053;-61
2023/10/25 09:14:13;;;;;;;3.65;2.00;;;;;;;9.19;67.73;98276.03;10433032;28;20045;-61
2023/10/25 09:19:20;;;;;;;5.03;2.47;;;;;;;9.48;67.58;98271.09;10464438;28;20040;-61
2023/10/25 09:24:23;;;;;;;6.25;2.58;;;;;;;9.82;66.91;98263.94;10462331;28;20169;-61
2023/10/25 09:29:26;;;;;;;4.75;2.33;;;;;;;9.98;66.61;98266.94;10463790;28;20052;-61
2023/10/25 09:34:34;;;;;;;4.07;2.13;;;;;;;9.99;66.63;98239.88;10462141;28;20052;-61
2023/10/25 09:39:37;;;;;;;5.22;2.75;;;;;;;10.22;66.64;98241.34;10463067;28;20044;-61
2023/10/25 09:44:54;;;;;;;5.43;2.60;;;;;;;10.36;66.52;98230.53;10462763;28;20044;-61
2023/10/25 09:50:03;;;;;;;5.35;2.60;;;;;;;10.46;66.34;98218.38;10428505;28;20603;-61
2023/10/25 09:55:08;;;;;;;6.45;2.90;;;;;;;10.44;66.36;98212.41;10459719;28;20049;-61
2023/10/25 10:00:11;;;;;;;6.57;2.85;;;;;;;10.40;66.70;98197.97;10458077;28;20497;-61
2023/10/25 10:05:38;;;;;;;6.93;2.72;;;;;;;10.32;67.25;98205.63;10437811;28;20182;-61
2023/10/25 10:10:52;;;;;;;7.57;2.25;;;;;;;10.44;67.11;98194.13;10461858;28;20053;-61
2023/10/25 10:16:01;;;;;;;6.95;2.88;;;;;;;10.49;67.05;98178.88;10460809;28;20412;-61
2023/10/25 10:21:06;;;;;;;4.45;2.63;;;;;;;10.55;67.38;98165.28;10461104;28;20060;-61
2023/10/25 10:26:08;;;;;;;5.57;2.65;;;;;;;10.54;67.52;98153.19;10452248;28;20052;-61
2023/10/25 10:31:12;;;;;;;4.53;2.53;;;;;;;10.60;67.41;98126.50;10461103;28;20408;-61
2023/10/25 10:36:25;;;;;;;4.57;2.80;;;;;;;10.72;67.48;98120.19;10460093;28;20515;-61
2023/10/25 10:41:28;;;;;;;4.50;2.28;;;;;;;10.74;67.27;98109.59;10459664;28;20071;-61
2023/10/25 10:46:31;;;;;;;5.47;2.20;;;;;;;10.83;67.54;98096.50;10457666;28;20485;-61
2023/10/25 10:51:33;;;;;;;5.18;2.60;;;;;;;10.86;67.22;98077.94;10461604;28;20056;-61
2023/10/25 10:56:36;;;;;;;4.55;2.47;;;;;;;10.83;67.23;98075.59;10457581;28;20060;-61
2023/10/25 11:01:38;;;;;;;6.80;2.92;;;;;;;10.80;67.40;98051.53;10489564;28;20056;-62
2023/10/25 11:06:40;;;;;;;4.60;2.75;;;;;;;10.52;68.30;98025.22;10455813;28;20076;-62
2023/10/25 11:11:44;;;;;;;4.25;2.13;;;;;;;10.55;68.58;98016.28;10459220;28;20048;-61
2023/10/25 11:16:46;;;;;;;4.18;2.33;;;;;;;10.70;68.56;98001.84;10459007;28;20394;-62
2023/10/25 11:21:48;;;;;;;5.07;2.55;;;;;;;10.77;68.72;97987.25;10461017;28;20043;-62
2023/10/25 11:26:50;;;;;;;4.57;2.42;;;;;;;10.95;68.33;97972.47;10461012;28;20391;-62
2023/10/25 11:31:55;;;;;;;3.95;2.20;;;;;;;10.76;69.20;97966.47;10461642;28;20041;-62
2023/10/25 11:36:57;;;;;;;4.07;1.95;;;;;;;10.74;69.30;97958.78;10458782;28;20583;-62
2023/10/25 11:41:59;;;;;;;3.35;1.63;;;;;;;10.92;68.64;97954.47;10459526;28;20492;-62
2023/10/25 11:47:01;;;;;;;3.15;1.42;;;;;;;11.09;68.47;97945.91;10457240;28;20249;-62
2023/10/25 11:52:05;;;;;;;4.68;1.40;;;;;;;11.08;68.47;97925.97;10459918;28;20053;-61
2023/10/25 11:57:07;;;;;;;1.92;1.30;;;;;;;11.19;68.29;97919.72;10461439;28;20484;-62
2023/10/25 12:02:09;;;;;;;1.85;1.13;;;;;;;11.10;68.62;97910.94;10467348;28;20052;-61
2023/10/25 12:07:11;;;;;;;1.88;1.30;;;;;;;11.02;68.94;97897.72;10459850;28;20386;-61
2023/10/25 12:12:14;;;;;;;1.83;1.20;;;;;;;10.97;69.11;97878.22;10468053;28;20412;-61
2023/10/25 12:17:16;;;;;;;1.58;1.10;;;;;;;11.03;69.16;97859.31;10464656;28;20048;-61
2023/10/25 12:22:18;;;;;;;2.22;1.45;;;;;;;11.17;69.05;97864.09;10467910;28;20299;-61
2023/10/25 12:27:20;;;;;;;1.17;1.00;;;;;;;11.22;69.04;97852.22;10462341;28;20465;-61
2023/10/25 12:32:22;;;;;;;1.98;1.10;;;;;;;11.33;69.22;97832.88;10464286;28;20083;-61
2023/10/25 12:37:25;;;;;;;1.65;1.10;;;;;;;11.43;68.98;97824.97;10466430;28;20047;-61
2023/10/25 12:42:27;;;;;;;1.70;1.00;;;;;;;11.46;69.24;97816.84;10463681;28;20373;-61
2023/10/25 12:47:29;;;;;;;1.02;0.82;;;;;;;11.51;69.03;97810.19;10465352;28;20048;-61
2023/10/25 12:52:32;;;;;;;0.75;0.75;;;;;;;11.57;69.04;97804.34;10460409;28;20059;-61
2023/10/25 12:57:35;;;;;;;1.02;0.80;;;;;;;11.56;69.06;97796.66;10462299;28;20131;-61
2023/10/25 13:02:38;;;;;;;0.80;0.75;;;;;;;11.60;69.17;97783.09;10461794;28;20465;-61
2023/10/25 13:07:44;;;;;;;2.28;0.90;;;;;;;11.70;69.24;97777.78;10461675;28;20381;-61
2023/10/25 13:12:48;;;;;;;0.90;0.73;;;;;;;11.89;68.67;97777.59;10458160;28;20044;-61
2023/10/25 13:17:51;;;;;;;0.68;0.68;;;;;;;11.94;68.77;97772.75;10463971;28;20825;-61
2023/10/25 13:22:54;;;;;;;0.73;0.73;;;;;;;12.00;68.60;97757.25;10456562;28;20579;-61
2023/10/25 13:28:02;;;;;;;0.70;0.70;;;;;;;11.99;68.83;97745.13;10461962;28;20127;-61
2023/10/25 13:33:06;;;;;;;0.70;0.70;;;;;;;11.97;69.30;97748.84;10457886;28;21415;-61
2023/10/25 13:38:11;;;;;;;0.70;0.65;;;;;;;12.11;68.52;97740.44;10456973;28;20504;-61
2023/10/25 13:43:15;;;;;;;1.55;0.98;;;;;;;12.16;68.57;97730.31;10439487;28;20048;-61
2023/10/25 13:48:18;;;;;;;0.55;0.55;;;;;;;12.20;69.06;97717.72;10465164;28;20402;-61
2023/10/25 13:53:20;;;;;;;0.88;0.75;;;;;;;12.25;68.82;97705.81;10461578;28;20040;-61
2023/10/25 13:58:22;;;;;;;0.70;0.68;;;;;;;12.40;68.52;97699.03;10465334;28;20485;-61
2023/10/25 14:03:24;;;;;;;1.30;0.68;;;;;;;12.41;68.51;97713.78;10457449;28;20052;-61
2023/10/25 14:08:26;;;;;;;1.05;0.70;;;;;;;12.27;68.88;97693.38;10461162;28;20040;-61
2023/10/25 14:13:28;;;;;;;0.75;0.70;;;;;;;12.18;69.21;97685.63;10458030;28;20249;-61
2023/10/25 14:18:33;;;;;;;1.77;0.82;;;;;;;12.19;69.40;97680.25;10463516;28;20044;-61
2023/10/25 14:23:36;;;;;;;1.17;0.70;;;;;;;12.45;68.95;97665.31;10457755;28;20528;-60
2023/10/25 14:28:38;;;;;;;2.35;0.70;;;;;;;12.63;68.49;97658.16;10446338;28;20052;-61
2023/10/25 14:33:40;;;;;;;2.13;0.90;;;;;;;12.62;68.75;97655.72;10457018;28;20075;-61
2023/10/25 14:38:44;;;;;;;1.23;0.90;;;;;;;12.56;68.77;97641.41;10462495;28;20041;-60
2023/10/25 14:43:46;;;;;;;0.75;0.75;;;;;;;12.61;68.82;97633.06;10458062;28;20044;-61
2023/10/25 14:48:49;;;;;;;0.77;0.70;;;;;;;12.54;68.94;97630.25;10458900;28;20045;-61
2023/10/25 14:53:53;;;;;;;1.02;0.93;;;;;;;12.44;69.24;97626.97;10454892;28;20060;-61
2023/10/25 14:58:55;;;;;;;0.88;0.70;;;;;;;12.41;69.60;97624.66;10461831;28;20044;-61
2023/10/25 15:03:57;;;;;;;1.85;1.02;;;;;;;12.44;69.71;97605.97;10453477;28;20428;-62
2023/10/25 15:09:01;;;;;;;0.93;0.80;;;;;;;12.49;69.73;97603.72;10455771;28;20139;-61
2023/10/25 15:14:03;;;;;;;1.65;0.80;;;;;;;12.64;69.52;97602.09;10452111;28;20043;-62
2023/10/25 15:19:05;;;;;;;1.05;0.93;;;;;;;12.80;69.21;97598.72;10461700;28;20044;-61
2023/10/25 15:24:07;;;;;;;3.10;1.92;;;;;;;12.84;69.17;97589.53;10454958;28;20364;-62
2023/10/25 15:29:10;;;;;;;4.20;1.83;;;;;;;12.94;69.04;97585.75;10460075;28;20502;-61
2023/10/25 15:34:12;;;;;;;7.65;3.38;;;;;;;12.95;68.82;97578.69;10453701;28;20075;-61
2023/10/25 15:39:15;;;;;;;6.85;3.97;;;;;;;12.91;69.11;97578.22;10462582;28;20044;-62
2023/10/25 15:44:17;;;;;;;6.35;3.58;;;;;;;12.92;68.87;97581.66;10461171;28;20155;-61
2023/10/25 15:49:20;;;;;;;8.13;4.03;;;;;;;12.86;69.11;97569.19;10460955;28;20041;-61
2023/10/25 15:54:22;;;;;;;5.60;3.10;;;;;;;12.89;68.79;97572.31;10463472;28;20048;-61
2023/10/25 15:59:24;;;;;;;6.53;3.95;;;;;;;12.88;68.93;97567.25;10452419;28;20371;-61
2023/10/25 16:04:25;;;;;;;9.05;4.65;;;;;;;12.80;69.15;97554.13;10464953;28;20037;-61
2023/10/25 16:09:28;;;;;;;5.82;2.65;;;;;;;12.77;68.94;97562.28;10465513;28;20431;-61
2023/10/25 16:14:30;;;;;;;4.22;2.10;;;;;;;12.69;69.15;97557.03;10466208;28;20478;-61
2023/10/25 16:19:32;;;;;;;4.03;2.10;;;;;;;12.66;69.31;97562.63;10465431;28;20674;-61
2023/10/25 16:24:37;;;;;;;7.85;4.05;;;;;;;12.59;69.43;97559.81;10465145;28;20123;-61
2023/10/25 16:29:39;;;;;;;5.00;2.47;;;;;;;12.47;69.51;97563.75;10447235;28;20051;-61
2023/10/25 16:34:41;;;;;;;4.13;1.85;;;;;;;12.34;69.69;97565.16;10464395;28;20044;-61
2023/10/25 16:39:43;;;;;;;3.40;1.75;;;;;;;12.34;69.97;97566.00;10456338;28;20498;-60
2023/10/25 16:44:47;;;;;;;6.80;2.47;;;;;;;12.43;69.98;97561.59;10466769;28;20159;-60
2023/10/25 16:49:51;;;;;;;28.95;4.25;;;;;;;12.52;69.68;97550.94;10472367;28;20496;-60
2023/10/25 16:54:53;;;;;;;29.13;4.45;;;;;;;12.52;69.52;97550.94;10472905;28;20377;-59
2023/10/25 16:59:55;;;;;;;181.30;13.32;;;;;;;12.54;69.69;97543.75;10471214;28;20047;-60
2023/10/25 17:04:57;;;;;;;128.82;11.80;;;;;;;12.52;69.94;97544.88;10472489;28;20076;-59
2023/10/25 17:10:00;;;;;;;217.93;12.80;;;;;;;12.44;69.58;97548.31;10470055;28;20052;-60
2023/10/25 17:15:02;;;;;;;67.05;5.60;;;;;;;12.27;69.74;97537.94;10471028;28;20508;-59
2023/10/25 17:20:05;;;;;;;14.55;3.72;;;;;;;12.25;69.98;97542.50;10470876;28;20787;-60
2023/10/25 17:25:07;;;;;;;4.07;2.50;;;;;;;12.32;69.76;97546.97;10463646;28;20051;-59
2023/10/25 17:30:10;;;;;;;5.13;2.95;;;;;;;12.33;69.73;97543.41;10470849;28;20052;-60
2023/10/25 17:35:12;;;;;;;5.00;3.13;;;;;;;12.34;69.63;97542.41;10471395;28;20096;-59
2023/10/25 17:40:14;;;;;;;5.13;2.85;;;;;;;12.32;69.65;97544.34;10467844;28;20155;-60
2023/10/25 17:45:16;;;;;;;5.43;3.10;;;;;;;12.32;69.41;97543.53;10471222;28;20559;-60
2023/10/25 17:50:20;;;;;;;80.05;7.50;;;;;;;12.25;69.53;97543.34;10468366;28;20090;-59
2023/10/25 17:55:22;;;;;;;305.50;19.77;;;;;;;12.22;69.44;97548.06;10470440;28;20053;-59
2023/10/25 18:00:24;;;;;;;218.95;12.52;;;;;;;12.23;69.33;97549.72;10469992;28;20059;-59
2023/10/25 18:05:29;;;;;;;139.73;9.75;;;;;;;12.25;69.71;97551.19;10469350;28;20051;-59
2023/10/25 18:10:31;;;;;;;240.85;10.90;;;;;;;12.21;69.72;97551.69;10470324;28;20582;-60
2023/10/25 18:15:33;;;;;;;6.82;3.50;;;;;;;12.25;69.63;97543.34;10468421;28;20155;-60
2023/10/25 18:20:35;;;;;;;5.70;2.90;;;;;;;12.33;69.60;97546.00;10469918;28;20326;-60
2023/10/25 18:25:37;;;;;;;4.70;2.63;;;;;;;12.41;69.28;97546.03;10468332;28;20060;-60
2023/10/25 18:30:40;;;;;;;6.72;2.50;;;;;;;12.42;69.21;97552.91;10469465;28;20404;-60
2023/10/25 18:36:02;;;;;;;4.90;2.70;;;;;;;12.43;69.42;97549.31;10467300;28;20040;-60
2023/10/25 18:41:05;;;;;;;4.88;2.78;;;;;;;12.50;69.48;97552.91;10467244;28;20047;-60
2023/10/25 18:46:09;;;;;;;6.07;2.63;;;;;;;12.49;69.13;97553.09;10468245;28;20067;-59
2023/10/25 18:51:12;;;;;;;5.22;2.63;;;;;;;12.53;69.33;97551.78;10467154;28;20139;-60
2023/10/25 18:56:15;;;;;;;17.58;6.85;;;;;;;12.55;69.15;97558.50;10467410;28;20055;-59
2023/10/25 19:01:17;;;;;;;67.15;7.20;;;;;;;12.44;69.28;97558.81;10466202;28;20090;-60
2023/10/25 19:06:20;;;;;;;7.15;3.40;;;;;;;12.44;69.33;97564.03;10467846;28;20393;-60
2023/10/25 19:11:34;;;;;;;6.00;3.30;;;;;;;12.45;69.57;97570.94;10466401;28;20082;-60
2023/10/25 19:16:36;;;;;;;5.75;2.75;;;;;;;12.34;69.47;97571.22;10466751;28;20550;-60
2023/10/25 19:21:38;;;;;;;5.72;3.42;;;;;;;12.35;69.61;97575.50;10467368;28;20051;-60
2023/10/25 19:26:40;;;;;;;6.53;3.03;;;;;;;12.37;69.60;97570.09;10465103;28;20678;-60
2023/10/25 19:31:51;;;;;;;5.00;2.45;;;;;;;12.44;69.60;97578.94;10463558;28;20387;-60
2023/10/25 19:36:56;;;;;;;5.22;2.80;;;;;;;12.50;69.63;97576.50;10449703;28;20045;-60
2023/10/25 19:41:58;;;;;;;5.00;2.80;;;;;;;12.53;69.53;97578.81;10455779;28;20044;-60
2023/10/25 19:47:01;;;;;;;3.53;2.03;;;;;;;12.40;69.90;97585.50;10466777;28;20453;-59
2023/10/25 19:52:04;;;;;;;2.50;1.80;;;;;;;12.37;69.91;97591.06;10462455;28;20048;-60
2023/10/25 19:57:06;;;;;;;2.22;1.20;;;;;;;12.30;70.47;97611.00;10460411;28;20051;-60
2023/10/25 20:02:11;;;;;;;2.13;1.17;;;;;;;12.14;71.30;97607.34;10463260;28;20040;-60
2023/10/25 20:07:13;;;;;;;2.95;1.17;;;;;;;12.12;70.87;97627.63;10458993;28;20059;-60
2023/10/25 20:12:15;;;;;;;1.25;0.80;;;;;;;12.13;71.39;97638.91;10434169;28;20257;-60
2023/10/25 20:17:18;;;;;;;1.02;0.90;;;;;;;12.12;71.26;97640.72;10473090;28;20107;-60
2023/10/25 20:22:23;;;;;;;0.77;0.68;;;;;;;12.16;71.26;97643.84;10468344;28;20067;-60
2023/10/25 20:27:26;;;;;;;3.22;1.05;;;;;;;12.27;70.84;97642.75;10471438;28;20036;-60
2023/10/25 20:32:30;;;;;;;0.70;0.70;;;;;;;12.33;70.70;97653.47;10470887;28;20048;-60
2023/10/25 20:37:32;;;;;;;1.05;0.63;;;;;;;12.31;70.42;97665.91;10466632;28;20048;-60
2023/10/25 20:42:35;;;;;;;0.88;0.80;;;;;;;12.32;70.40;97678.03;10458048;28;20093;-60
2023/10/25 20:47:37;;;;;;;1.05;0.95;;;;;;;12.32;70.69;97680.66;10460880;28;20079;-60
2023/10/25 20:52:39;;;;;;;0.60;0.60;;;;;;;12.34;70.41;97689.16;10462198;28;20041;-60
2023/10/25 20:57:42;;;;;;;1.83;0.80;;;;;;;12.33;69.97;97700.66;10465087;28;20122;-60
2023/10/25 21:02:44;;;;;;;0.90;0.73;;;;;;;12.29;70.03;97709.81;10464230;28;20040;-60
2023/10/25 21:07:46;;;;;;;0.50;0.50;;;;;;;12.31;69.78;97702.59;10460630;28;20045;-60
2023/10/25 21:12:48;;;;;;;0.60;0.60;;;;;;;12.30;69.89;97713.22;10466282;28;20522;-60
2023/10/25 21:17:51;;;;;;;0.98;0.80;;;;;;;12.32;69.79;97712.09;10466376;28;20488;-60
2023/10/25 21:22:53;;;;;;;0.40;0.40;;;;;;;12.20;69.63;97733.44;10465160;28;20049;-60
2023/10/25 21:27:55;;;;;;;0.95;0.60;;;;;;;12.03;69.06;97733.34;10466433;28;20045;-59
2023/10/25 21:32:57;;;;;;;0.47;0.47;;;;;;;12.03;69.05;97741.22;10462564;28;20288;-59
2023/10/25 21:37:59;;;;;;;0.82;0.57;;;;;;;12.04;68.69;97742.03;10447566;28;20416;-59
2023/10/25 21:43:01;;;;;;;0.70;0.70;;;;;;;11.94;68.59;97751.78;10465433;28;20566;-60
2023/10/25 21:48:04;;;;;;;0.95;0.60;;;;;;;11.71;68.43;97754.06;10463971;28;20393;-59
2023/10/25 21:53:07;;;;;;;0.52;0.52;;;;;;;11.67;68.41;97765.00;10464084;28;20132;-60
2023/10/25 21:58:09;;;;;;;0.68;0.65;;;;;;;11.67;68.63;97771.06;10493591;28;20498;-60
2023/10/25 22:03:30;;;;;;;0.60;0.60;;;;;;;11.64;68.66;97767.91;10466116;28;20492;-59
2023/10/25 22:08:32;;;;;;;0.40;0.40;;;;;;;11.62;68.15;97772.50;10464642;28;20044;-60
2023/10/25 22:13:36;;;;;;;0.43;0.43;;;;;;;11.44;68.22;97769.06;10462114;28;20805;-59
2023/10/25 22:18:38;;;;;;;0.82;0.65;;;;;;;11.39;68.73;97774.72;10447869;28;20044;-60
2023/10/25 22:23:41;;;;;;;0.57;0.52;;;;;;;11.44;68.59;97776.91;10460386;28;20049;-58
2023/10/25 22:28:43;;;;;;;0.63;0.60;;;;;;;11.45;68.17;97778.53;10466644;28;20414;-59
2023/10/25 22:33:45;;;;;;;0.40;0.40;;;;;;;11.45;67.97;97778.53;10463653;28;20052;-59
2023/10/25 22:38:47;;;;;;;0.60;0.52;;;;;;;11.35;67.59;97796.09;10456305;28;20493;-59
2023/10/25 22:43:49;;;;;;;0.35;0.35;;;;;;;11.33;67.60;97801.50;10465469;28;20051;-60
2023/10/25 22:48:51;;;;;;;0.77;0.60;;;;;;;11.38;67.91;97808.91;10464111;28;20519;-59
2023/10/25 22:53:54;;;;;;;0.55;0.40;;;;;;;11.43;67.21;97817.13;10462262;28;20229;-59
2023/10/25 22:58:56;;;;;;;0.50;0.50;;;;;;;11.47;67.21;97814.06;10462519;28;20285;-59
2023/10/25 23:03:58;;;;;;;0.68;0.60;;;;;;;11.49;66.71;97821.75;10461020;28;20058;-59
2023/10/25 23:09:01;;;;;;;1.08;0.50;;;;;;;11.45;66.88;97817.78;10458004;28;20109;-60
2023/10/25 23:14:03;;;;;;;0.45;0.45;;;;;;;11.51;67.15;97820.66;10463546;28;20086;-59
2023/10/25 23:19:05;;;;;;;0.85;0.60;;;;;;;11.36;66.89;97821.31;10461994;28;20056;-59
2023/10/25 23:24:08;;;;;;;0.95;0.60;;;;;;;11.30;67.03;97830.56;10460283;28;20064;-59
2023/10/25 23:29:10;;;;;;;0.47;0.47;;;;;;;11.20;66.90;97828.00;10462608;28;20053;-59